sensor_id;sensor_type;location;lat;lon;timestamp;P1;durP1;ratioP1;P2;durP2;ratioP2
76617;SDS011;65509;42.816;74.648;2022-12-10T00:01:32;43.85;;;11.52;;
76617;SDS011;65509;42.816;74.648;2022-12-10T00:03:59;30.60;;;10.45;;
76617;SDS011;65509;42.816;74.648;2022-12-10T00:06:26;35.80;;;9.90;;
76617;SDS011;65509;42.816;74.648;2022-12-10T00:08:52;29.10;;;8.55;;
76617;SDS011;65509;42.816;74.648;2022-12-10T00:11:18;28.98;;;8.00;;
76617;SDS011;65509;42.816;74.648;2022-12-10T00:13:44;35.88;;;8.85;;
76617;SDS011;65509;42.816;74.648;2022-12-10T00:16:11;27.35;;;8.82;;
76617;SDS011;65509;42.816;74.648;2022-12-10T00:18:36;36.53;;;10.35;;
76617;SDS011;65509;42.816;74.648;2022-12-10T00:21:03;34.15;;;10.07;;
76617;SDS011;65509;42.816;74.648;2022-12-10T00:23:28;32.30;;;9.57;;
76617;SDS011;65509;42.816;74.648;2022-12-10T00:26:01;34.80;;;10.70;;
76617;SDS011;65509;42.816;74.648;2022-12-10T00:28:26;49.50;;;15.43;;
76617;SDS011;65509;42.816;74.648;2022-12-10T00:30:52;38.60;;;12.02;;
76617;SDS011;65509;42.816;74.648;2022-12-10T00:33:17;42.38;;;13.25;;
76617;SDS011;65509;42.816;74.648;2022-12-10T00:35:43;45.60;;;12.88;;
76617;SDS011;65509;42.816;74.648;2022-12-10T00:38:08;42.65;;;12.13;;
76617;SDS011;65509;42.816;74.648;2022-12-10T00:40:33;49.45;;;13.52;;
76617;SDS011;65509;42.816;74.648;2022-12-10T00:42:59;47.88;;;13.52;;
76617;SDS011;65509;42.816;74.648;2022-12-10T00:45:24;36.58;;;13.13;;
76617;SDS011;65509;42.816;74.648;2022-12-10T00:47:50;48.78;;;14.93;;
76617;SDS011;65509;42.816;74.648;2022-12-10T00:50:15;45.65;;;15.27;;
76617;SDS011;65509;42.816;74.648;2022-12-10T00:52:41;41.78;;;13.60;;
76617;SDS011;65509;42.816;74.648;2022-12-10T00:55:06;31.45;;;12.05;;
76617;SDS011;65509;42.816;74.648;2022-12-10T00:57:32;46.20;;;16.40;;
76617;SDS011;65509;42.816;74.648;2022-12-10T00:59:57;47.92;;;16.15;;
76617;SDS011;65509;42.816;74.648;2022-12-10T01:02:23;34.25;;;12.35;;
76617;SDS011;65509;42.816;74.648;2022-12-10T01:04:52;35.13;;;12.93;;
76617;SDS011;65509;42.816;74.648;2022-12-10T01:07:17;41.63;;;14.32;;
76617;SDS011;65509;42.816;74.648;2022-12-10T01:09:42;70.75;;;22.17;;
76617;SDS011;65509;42.816;74.648;2022-12-10T01:12:08;61.03;;;22.08;;
76617;SDS011;65509;42.816;74.648;2022-12-10T01:14:33;46.95;;;16.48;;
76617;SDS011;65509;42.816;74.648;2022-12-10T01:17:00;43.53;;;13.73;;
76617;SDS011;65509;42.816;74.648;2022-12-10T01:19:27;46.40;;;14.73;;
76617;SDS011;65509;42.816;74.648;2022-12-10T01:21:53;45.47;;;15.90;;
76617;SDS011;65509;42.816;74.648;2022-12-10T01:24:20;43.97;;;15.13;;
76617;SDS011;65509;42.816;74.648;2022-12-10T01:26:45;48.90;;;15.73;;
76617;SDS011;65509;42.816;74.648;2022-12-10T01:29:11;46.45;;;16.13;;
76617;SDS011;65509;42.816;74.648;2022-12-10T01:31:37;54.85;;;17.77;;
76617;SDS011;65509;42.816;74.648;2022-12-10T01:34:03;53.33;;;16.88;;
76617;SDS011;65509;42.816;74.648;2022-12-10T01:36:29;69.85;;;22.27;;
76617;SDS011;65509;42.816;74.648;2022-12-10T01:38:56;80.10;;;27.98;;
76617;SDS011;65509;42.816;74.648;2022-12-10T01:41:23;85.35;;;29.65;;
76617;SDS011;65509;42.816;74.648;2022-12-10T01:44:02;88.10;;;29.15;;
76617;SDS011;65509;42.816;74.648;2022-12-10T01:46:30;74.90;;;24.17;;
76617;SDS011;65509;42.816;74.648;2022-12-10T01:48:56;51.25;;;18.42;;
76617;SDS011;65509;42.816;74.648;2022-12-10T01:51:23;52.35;;;16.98;;
76617;SDS011;65509;42.816;74.648;2022-12-10T01:53:49;46.42;;;14.55;;
76617;SDS011;65509;42.816;74.648;2022-12-10T01:56:15;39.83;;;13.70;;
76617;SDS011;65509;42.816;74.648;2022-12-10T01:58:44;48.90;;;17.23;;
76617;SDS011;65509;42.816;74.648;2022-12-10T02:09:31;52.13;;;16.35;;
76617;SDS011;65509;42.816;74.648;2022-12-10T02:11:42;49.25;;;15.30;;
76617;SDS011;65509;42.816;74.648;2022-12-10T02:14:10;36.97;;;14.27;;
76617;SDS011;65509;42.816;74.648;2022-12-10T02:16:44;45.35;;;15.90;;
76617;SDS011;65509;42.816;74.648;2022-12-10T02:21:44;49.63;;;17.73;;
76617;SDS011;65509;42.816;74.648;2022-12-10T02:24:13;50.80;;;17.08;;
76617;SDS011;65509;42.816;74.648;2022-12-10T02:31:42;111.45;;;35.60;;
76617;SDS011;65509;42.816;74.648;2022-12-10T02:34:09;140.45;;;38.80;;
76617;SDS011;65509;42.816;74.648;2022-12-10T02:36:37;134.60;;;38.60;;
76617;SDS011;65509;42.816;74.648;2022-12-10T02:39:03;132.35;;;40.03;;
76617;SDS011;65509;42.816;74.648;2022-12-10T02:41:33;139.45;;;40.55;;
76617;SDS011;65509;42.816;74.648;2022-12-10T02:43:59;143.60;;;37.40;;
76617;SDS011;65509;42.816;74.648;2022-12-10T02:46:27;137.05;;;38.58;;
76617;SDS011;65509;42.816;74.648;2022-12-10T02:48:56;130.13;;;37.95;;
76617;SDS011;65509;42.816;74.648;2022-12-10T02:51:23;175.75;;;50.67;;
76617;SDS011;65509;42.816;74.648;2022-12-10T02:53:58;205.82;;;59.83;;
76617;SDS011;65509;42.816;74.648;2022-12-10T02:56:26;164.10;;;51.22;;
76617;SDS011;65509;42.816;74.648;2022-12-10T02:59:14;152.63;;;47.38;;
76617;SDS011;65509;42.816;74.648;2022-12-10T03:04:33;173.15;;;53.35;;
76617;SDS011;65509;42.816;74.648;2022-12-10T03:07:02;268.13;;;82.72;;
76617;SDS011;65509;42.816;74.648;2022-12-10T03:09:33;270.90;;;90.72;;
76617;SDS011;65509;42.816;74.648;2022-12-10T03:12:02;234.82;;;76.18;;
76617;SDS011;65509;42.816;74.648;2022-12-10T03:14:31;205.48;;;69.05;;
76617;SDS011;65509;42.816;74.648;2022-12-10T03:16:58;197.65;;;65.93;;
76617;SDS011;65509;42.816;74.648;2022-12-10T03:19:26;184.82;;;61.92;;
76617;SDS011;65509;42.816;74.648;2022-12-10T03:21:53;156.75;;;56.55;;
76617;SDS011;65509;42.816;74.648;2022-12-10T03:24:19;161.27;;;57.15;;
76617;SDS011;65509;42.816;74.648;2022-12-10T03:26:46;184.30;;;61.78;;
76617;SDS011;65509;42.816;74.648;2022-12-10T03:29:14;152.65;;;55.92;;
76617;SDS011;65509;42.816;74.648;2022-12-10T03:31:42;134.98;;;49.08;;
76617;SDS011;65509;42.816;74.648;2022-12-10T03:34:08;117.05;;;41.92;;
76617;SDS011;65509;42.816;74.648;2022-12-10T03:36:35;93.45;;;34.08;;
76617;SDS011;65509;42.816;74.648;2022-12-10T03:39:01;124.57;;;45.78;;
76617;SDS011;65509;42.816;74.648;2022-12-10T03:41:30;92.95;;;38.30;;
76617;SDS011;65509;42.816;74.648;2022-12-10T03:43:56;96.95;;;41.50;;
76617;SDS011;65509;42.816;74.648;2022-12-10T03:46:22;97.00;;;38.35;;
76617;SDS011;65509;42.816;74.648;2022-12-10T03:48:49;96.60;;;38.38;;
76617;SDS011;65509;42.816;74.648;2022-12-10T03:51:14;78.45;;;32.83;;
76617;SDS011;65509;42.816;74.648;2022-12-10T03:53:40;81.00;;;30.77;;
76617;SDS011;65509;42.816;74.648;2022-12-10T03:56:06;74.68;;;27.00;;
76617;SDS011;65509;42.816;74.648;2022-12-10T03:58:31;70.57;;;27.65;;
76617;SDS011;65509;42.816;74.648;2022-12-10T04:00:57;90.07;;;31.15;;
76617;SDS011;65509;42.816;74.648;2022-12-10T04:03:25;62.13;;;24.55;;
76617;SDS011;65509;42.816;74.648;2022-12-10T04:05:50;73.95;;;25.63;;
76617;SDS011;65509;42.816;74.648;2022-12-10T04:08:16;51.28;;;20.38;;
76617;SDS011;65509;42.816;74.648;2022-12-10T04:10:41;39.00;;;15.73;;
76617;SDS011;65509;42.816;74.648;2022-12-10T04:13:07;44.85;;;17.15;;
76617;SDS011;65509;42.816;74.648;2022-12-10T04:15:51;46.15;;;17.45;;
76617;SDS011;65509;42.816;74.648;2022-12-10T04:18:35;38.75;;;15.25;;
76617;SDS011;65509;42.816;74.648;2022-12-10T04:21:00;39.80;;;14.20;;
76617;SDS011;65509;42.816;74.648;2022-12-10T04:23:44;87.13;;;28.45;;
76617;SDS011;65509;42.816;74.648;2022-12-10T04:26:28;187.75;;;51.22;;
76617;SDS011;65509;42.816;74.648;2022-12-10T04:29:12;180.60;;;53.10;;
76617;SDS011;65509;42.816;74.648;2022-12-10T04:31:38;142.77;;;42.08;;
76617;SDS011;65509;42.816;74.648;2022-12-10T04:34:03;131.88;;;43.75;;
76617;SDS011;65509;42.816;74.648;2022-12-10T04:36:29;62.60;;;24.25;;
76617;SDS011;65509;42.816;74.648;2022-12-10T04:38:54;73.10;;;25.20;;
76617;SDS011;65509;42.816;74.648;2022-12-10T04:41:19;57.50;;;23.00;;
76617;SDS011;65509;42.816;74.648;2022-12-10T04:43:45;35.55;;;14.50;;
76617;SDS011;65509;42.816;74.648;2022-12-10T04:46:10;49.65;;;18.33;;
76617;SDS011;65509;42.816;74.648;2022-12-10T04:48:36;30.15;;;12.20;;
76617;SDS011;65509;42.816;74.648;2022-12-10T04:51:02;29.45;;;12.40;;
76617;SDS011;65509;42.816;74.648;2022-12-10T04:53:28;19.58;;;7.97;;
76617;SDS011;65509;42.816;74.648;2022-12-10T04:55:53;51.75;;;17.33;;
76617;SDS011;65509;42.816;74.648;2022-12-10T04:58:19;29.30;;;8.88;;
76617;SDS011;65509;42.816;74.648;2022-12-10T05:00:44;15.25;;;6.18;;
76617;SDS011;65509;42.816;74.648;2022-12-10T05:03:10;15.63;;;6.85;;
76617;SDS011;65509;42.816;74.648;2022-12-10T05:05:35;31.17;;;12.30;;
76617;SDS011;65509;42.816;74.648;2022-12-10T05:08:01;44.15;;;11.82;;
76617;SDS011;65509;42.816;74.648;2022-12-10T05:10:27;41.05;;;12.35;;
76617;SDS011;65509;42.816;74.648;2022-12-10T05:13:04;52.40;;;17.40;;
76617;SDS011;65509;42.816;74.648;2022-12-10T05:15:29;39.15;;;13.75;;
76617;SDS011;65509;42.816;74.648;2022-12-10T05:17:54;34.92;;;11.43;;
76617;SDS011;65509;42.816;74.648;2022-12-10T05:20:20;14.65;;;6.45;;
76617;SDS011;65509;42.816;74.648;2022-12-10T05:22:45;15.55;;;6.07;;
76617;SDS011;65509;42.816;74.648;2022-12-10T05:25:29;16.50;;;6.47;;
76617;SDS011;65509;42.816;74.648;2022-12-10T05:27:55;15.82;;;6.35;;
76617;SDS011;65509;42.816;74.648;2022-12-10T05:30:20;28.02;;;9.40;;
76617;SDS011;65509;42.816;74.648;2022-12-10T05:32:46;33.10;;;11.50;;
76617;SDS011;65509;42.816;74.648;2022-12-10T05:35:11;26.33;;;11.90;;
76617;SDS011;65509;42.816;74.648;2022-12-10T05:37:37;28.92;;;11.68;;
76617;SDS011;65509;42.816;74.648;2022-12-10T05:40:03;31.80;;;11.73;;
76617;SDS011;65509;42.816;74.648;2022-12-10T05:42:28;26.95;;;11.68;;
76617;SDS011;65509;42.816;74.648;2022-12-10T05:44:54;29.70;;;11.63;;
76617;SDS011;65509;42.816;74.648;2022-12-10T05:47:19;17.65;;;9.05;;
76617;SDS011;65509;42.816;74.648;2022-12-10T05:49:45;26.58;;;8.52;;
76617;SDS011;65509;42.816;74.648;2022-12-10T05:52:13;26.38;;;11.75;;
76617;SDS011;65509;42.816;74.648;2022-12-10T05:54:38;25.23;;;10.48;;
76617;SDS011;65509;42.816;74.648;2022-12-10T05:57:04;24.00;;;10.15;;
76617;SDS011;65509;42.816;74.648;2022-12-10T05:59:29;28.58;;;10.52;;
76617;SDS011;65509;42.816;74.648;2022-12-10T06:01:55;28.50;;;10.50;;
76617;SDS011;65509;42.816;74.648;2022-12-10T06:04:20;26.17;;;9.60;;
76617;SDS011;65509;42.816;74.648;2022-12-10T06:06:46;23.88;;;9.80;;
76617;SDS011;65509;42.816;74.648;2022-12-10T06:09:12;27.50;;;10.00;;
76617;SDS011;65509;42.816;74.648;2022-12-10T06:11:38;31.25;;;10.88;;
76617;SDS011;65509;42.816;74.648;2022-12-10T06:14:04;32.25;;;12.52;;
76617;SDS011;65509;42.816;74.648;2022-12-10T06:16:29;58.05;;;23.23;;
76617;SDS011;65509;42.816;74.648;2022-12-10T06:18:58;49.22;;;19.50;;
76617;SDS011;65509;42.816;74.648;2022-12-10T06:21:23;40.67;;;14.25;;
76617;SDS011;65509;42.816;74.648;2022-12-10T06:23:49;37.42;;;13.95;;
76617;SDS011;65509;42.816;74.648;2022-12-10T06:26:17;34.08;;;12.75;;
76617;SDS011;65509;42.816;74.648;2022-12-10T06:28:44;38.67;;;14.82;;
76617;SDS011;65509;42.816;74.648;2022-12-10T06:31:09;37.42;;;13.98;;
76617;SDS011;65509;42.816;74.648;2022-12-10T06:33:36;35.58;;;12.35;;
76617;SDS011;65509;42.816;74.648;2022-12-10T06:36:03;50.10;;;15.05;;
76617;SDS011;65509;42.816;74.648;2022-12-10T06:38:29;34.90;;;13.43;;
76617;SDS011;65509;42.816;74.648;2022-12-10T06:40:54;35.85;;;12.57;;
76617;SDS011;65509;42.816;74.648;2022-12-10T06:43:19;29.13;;;11.57;;
76617;SDS011;65509;42.816;74.648;2022-12-10T06:45:45;26.10;;;10.38;;
76617;SDS011;65509;42.816;74.648;2022-12-10T06:48:11;32.20;;;10.90;;
76617;SDS011;65509;42.816;74.648;2022-12-10T06:50:39;35.10;;;12.00;;
76617;SDS011;65509;42.816;74.648;2022-12-10T06:53:18;31.05;;;10.60;;
76617;SDS011;65509;42.816;74.648;2022-12-10T06:58:09;26.55;;;9.95;;
76617;SDS011;65509;42.816;74.648;2022-12-10T07:00:34;28.75;;;11.20;;
76617;SDS011;65509;42.816;74.648;2022-12-10T07:03:00;29.40;;;10.60;;
76617;SDS011;65509;42.816;74.648;2022-12-10T07:05:25;27.77;;;9.52;;
76617;SDS011;65509;42.816;74.648;2022-12-10T07:07:51;28.15;;;10.93;;
76617;SDS011;65509;42.816;74.648;2022-12-10T07:10:17;26.73;;;10.02;;
76617;SDS011;65509;42.816;74.648;2022-12-10T07:12:42;22.95;;;9.18;;
76617;SDS011;65509;42.816;74.648;2022-12-10T07:15:08;23.17;;;9.98;;
76617;SDS011;65509;42.816;74.648;2022-12-10T07:17:33;21.80;;;9.63;;
76617;SDS011;65509;42.816;74.648;2022-12-10T07:19:59;26.23;;;10.23;;
76617;SDS011;65509;42.816;74.648;2022-12-10T07:22:24;27.02;;;11.35;;
76617;SDS011;65509;42.816;74.648;2022-12-10T07:24:53;26.50;;;10.73;;
76617;SDS011;65509;42.816;74.648;2022-12-10T07:27:18;25.67;;;11.52;;
76617;SDS011;65509;42.816;74.648;2022-12-10T07:29:45;33.80;;;11.40;;
76617;SDS011;65509;42.816;74.648;2022-12-10T07:32:10;29.67;;;12.00;;
76617;SDS011;65509;42.816;74.648;2022-12-10T07:34:36;31.40;;;12.73;;
76617;SDS011;65509;42.816;74.648;2022-12-10T07:37:01;41.38;;;14.02;;
76617;SDS011;65509;42.816;74.648;2022-12-10T07:39:27;32.25;;;14.15;;
76617;SDS011;65509;42.816;74.648;2022-12-10T07:41:53;35.60;;;13.63;;
76617;SDS011;65509;42.816;74.648;2022-12-10T07:44:23;37.67;;;14.02;;
76617;SDS011;65509;42.816;74.648;2022-12-10T07:46:50;30.05;;;12.73;;
76617;SDS011;65509;42.816;74.648;2022-12-10T07:49:16;34.33;;;14.00;;
76617;SDS011;65509;42.816;74.648;2022-12-10T07:51:48;34.63;;;14.73;;
76617;SDS011;65509;42.816;74.648;2022-12-10T07:54:14;38.03;;;14.23;;
76617;SDS011;65509;42.816;74.648;2022-12-10T07:56:40;30.02;;;13.25;;
76617;SDS011;65509;42.816;74.648;2022-12-10T07:59:07;39.28;;;13.07;;
76617;SDS011;65509;42.816;74.648;2022-12-10T08:01:33;36.45;;;12.75;;
76617;SDS011;65509;42.816;74.648;2022-12-10T08:03:59;34.42;;;12.23;;
76617;SDS011;65509;42.816;74.648;2022-12-10T08:06:25;29.38;;;11.35;;
76617;SDS011;65509;42.816;74.648;2022-12-10T08:08:51;27.20;;;11.18;;
76617;SDS011;65509;42.816;74.648;2022-12-10T08:11:18;38.38;;;12.18;;
76617;SDS011;65509;42.816;74.648;2022-12-10T08:13:43;35.85;;;15.27;;
76617;SDS011;65509;42.816;74.648;2022-12-10T08:16:14;34.47;;;13.75;;
76617;SDS011;65509;42.816;74.648;2022-12-10T08:18:39;32.38;;;12.38;;
76617;SDS011;65509;42.816;74.648;2022-12-10T08:21:09;40.97;;;14.68;;
76617;SDS011;65509;42.816;74.648;2022-12-10T08:23:39;34.72;;;14.90;;
76617;SDS011;65509;42.816;74.648;2022-12-10T08:26:05;61.90;;;22.25;;
76617;SDS011;65509;42.816;74.648;2022-12-10T08:28:31;74.38;;;24.75;;
76617;SDS011;65509;42.816;74.648;2022-12-10T08:30:57;79.68;;;25.30;;
76617;SDS011;65509;42.816;74.648;2022-12-10T08:33:22;81.10;;;26.10;;
76617;SDS011;65509;42.816;74.648;2022-12-10T08:35:48;63.13;;;23.20;;
76617;SDS011;65509;42.816;74.648;2022-12-10T08:38:13;78.03;;;24.77;;
76617;SDS011;65509;42.816;74.648;2022-12-10T08:40:39;70.78;;;21.25;;
76617;SDS011;65509;42.816;74.648;2022-12-10T08:43:11;73.45;;;21.42;;
76617;SDS011;65509;42.816;74.648;2022-12-10T08:48:23;58.70;;;18.98;;
76617;SDS011;65509;42.816;74.648;2022-12-10T08:50:49;64.05;;;19.67;;
76617;SDS011;65509;42.816;74.648;2022-12-10T08:53:14;76.60;;;19.77;;
76617;SDS011;65509;42.816;74.648;2022-12-10T08:55:40;62.63;;;16.85;;
76617;SDS011;65509;42.816;74.648;2022-12-10T08:58:05;60.97;;;16.17;;
76617;SDS011;65509;42.816;74.648;2022-12-10T09:00:31;73.72;;;19.05;;
76617;SDS011;65509;42.816;74.648;2022-12-10T09:02:56;68.10;;;17.95;;
76617;SDS011;65509;42.816;74.648;2022-12-10T09:05:22;56.50;;;18.15;;
76617;SDS011;65509;42.816;74.648;2022-12-10T09:07:47;68.68;;;18.52;;
76617;SDS011;65509;42.816;74.648;2022-12-10T09:10:13;71.05;;;19.88;;
76617;SDS011;65509;42.816;74.648;2022-12-10T09:12:38;84.70;;;18.73;;
76617;SDS011;65509;42.816;74.648;2022-12-10T09:15:06;58.17;;;16.73;;
76617;SDS011;65509;42.816;74.648;2022-12-10T09:17:34;66.88;;;17.80;;
76617;SDS011;65509;42.816;74.648;2022-12-10T09:20:01;55.03;;;18.52;;
76617;SDS011;65509;42.816;74.648;2022-12-10T09:22:28;51.85;;;18.05;;
76617;SDS011;65509;42.816;74.648;2022-12-10T09:24:53;53.35;;;16.75;;
76617;SDS011;65509;42.816;74.648;2022-12-10T09:27:19;61.13;;;18.05;;
76617;SDS011;65509;42.816;74.648;2022-12-10T09:29:45;67.70;;;19.63;;
76617;SDS011;65509;42.816;74.648;2022-12-10T09:32:11;77.22;;;21.20;;
76617;SDS011;65509;42.816;74.648;2022-12-10T09:34:39;61.78;;;20.92;;
76617;SDS011;65509;42.816;74.648;2022-12-10T09:37:06;57.15;;;18.45;;
76617;SDS011;65509;42.816;74.648;2022-12-10T09:39:32;65.35;;;21.20;;
76617;SDS011;65509;42.816;74.648;2022-12-10T09:47:08;66.78;;;20.92;;
76617;SDS011;65509;42.816;74.648;2022-12-10T09:52:19;90.47;;;24.08;;
76617;SDS011;65509;42.816;74.648;2022-12-10T09:54:50;102.70;;;24.98;;
76617;SDS011;65509;42.816;74.648;2022-12-10T09:57:22;86.03;;;23.02;;
76617;SDS011;65509;42.816;74.648;2022-12-10T09:59:54;89.85;;;26.17;;
76617;SDS011;65509;42.816;74.648;2022-12-10T10:02:29;88.55;;;26.10;;
76617;SDS011;65509;42.816;74.648;2022-12-10T10:04:58;93.15;;;24.70;;
76617;SDS011;65509;42.816;74.648;2022-12-10T10:07:31;93.03;;;21.38;;
76617;SDS011;65509;42.816;74.648;2022-12-10T10:10:00;74.65;;;19.80;;
76617;SDS011;65509;42.816;74.648;2022-12-10T10:12:27;98.50;;;23.40;;
76617;SDS011;65509;42.816;74.648;2022-12-10T10:14:53;96.97;;;25.38;;
76617;SDS011;65509;42.816;74.648;2022-12-10T10:17:21;86.88;;;24.48;;
76617;SDS011;65509;42.816;74.648;2022-12-10T10:19:48;76.70;;;25.42;;
76617;SDS011;65509;42.816;74.648;2022-12-10T10:22:19;82.07;;;23.50;;
76617;SDS011;65509;42.816;74.648;2022-12-10T10:24:48;79.10;;;22.45;;
76617;SDS011;65509;42.816;74.648;2022-12-10T10:27:19;75.28;;;23.27;;
76617;SDS011;65509;42.816;74.648;2022-12-10T10:29:48;83.00;;;24.92;;
76617;SDS011;65509;42.816;74.648;2022-12-10T10:32:23;129.52;;;42.53;;
76617;SDS011;65509;42.816;74.648;2022-12-10T10:34:55;118.85;;;39.95;;
76617;SDS011;65509;42.816;74.648;2022-12-10T10:37:28;98.35;;;33.47;;
76617;SDS011;65509;42.816;74.648;2022-12-10T10:39:55;85.03;;;30.63;;
76617;SDS011;65509;42.816;74.648;2022-12-10T10:42:32;84.90;;;31.25;;
76617;SDS011;65509;42.816;74.648;2022-12-10T10:45:03;84.35;;;28.00;;
76617;SDS011;65509;42.816;74.648;2022-12-10T10:47:30;78.30;;;26.83;;
76617;SDS011;65509;42.816;74.648;2022-12-10T10:49:56;78.65;;;30.83;;
76617;SDS011;65509;42.816;74.648;2022-12-10T10:52:29;86.78;;;31.23;;
76617;SDS011;65509;42.816;74.648;2022-12-10T10:54:55;89.07;;;31.75;;
76617;SDS011;65509;42.816;74.648;2022-12-10T10:59:55;125.85;;;46.20;;
76617;SDS011;65509;42.816;74.648;2022-12-10T11:02:24;167.05;;;58.92;;
76617;SDS011;65509;42.816;74.648;2022-12-10T11:04:52;184.18;;;69.72;;
76617;SDS011;65509;42.816;74.648;2022-12-10T11:07:23;232.10;;;79.93;;
76617;SDS011;65509;42.816;74.648;2022-12-10T11:09:52;230.32;;;86.20;;
76617;SDS011;65509;42.816;74.648;2022-12-10T11:12:28;217.73;;;78.55;;
76617;SDS011;65509;42.816;74.648;2022-12-10T11:14:54;225.88;;;82.05;;
76617;SDS011;65509;42.816;74.648;2022-12-10T11:17:21;231.13;;;75.93;;
76617;SDS011;65509;42.816;74.648;2022-12-10T11:22:22;178.90;;;67.18;;
76617;SDS011;65509;42.816;74.648;2022-12-10T11:24:48;210.13;;;76.40;;
76617;SDS011;65509;42.816;74.648;2022-12-10T11:30:09;234.85;;;79.30;;
76617;SDS011;65509;42.816;74.648;2022-12-10T11:35:48;204.52;;;76.93;;
76617;SDS011;65509;42.816;74.648;2022-12-10T11:38:17;187.13;;;71.82;;
76617;SDS011;65509;42.816;74.648;2022-12-10T11:40:48;178.23;;;63.55;;
76617;SDS011;65509;42.816;74.648;2022-12-10T11:51:02;272.27;;;94.72;;
76617;SDS011;65509;42.816;74.648;2022-12-10T11:58:39;387.83;;;124.75;;
76617;SDS011;65509;42.816;74.648;2022-12-10T12:11:22;327.75;;;114.07;;
76617;SDS011;65509;42.816;74.648;2022-12-10T12:14:36;295.17;;;99.55;;
76617;SDS011;65509;42.816;74.648;2022-12-10T12:16:46;260.55;;;91.28;;
76617;SDS011;65509;42.816;74.648;2022-12-10T12:19:56;288.40;;;95.90;;
76617;SDS011;65509;42.816;74.648;2022-12-10T12:22:07;466.98;;;200.00;;
76617;SDS011;65509;42.816;74.648;2022-12-10T12:24:35;320.08;;;121.57;;
76617;SDS011;65509;42.816;74.648;2022-12-10T12:27:02;303.40;;;109.35;;
76617;SDS011;65509;42.816;74.648;2022-12-10T12:29:54;339.10;;;124.90;;
76617;SDS011;65509;42.816;74.648;2022-12-10T12:32:22;375.58;;;139.50;;
76617;SDS011;65509;42.816;74.648;2022-12-10T12:35:00;321.17;;;118.97;;
76617;SDS011;65509;42.816;74.648;2022-12-10T12:37:36;355.50;;;126.95;;
76617;SDS011;65509;42.816;74.648;2022-12-10T12:42:55;675.08;;;305.55;;
76617;SDS011;65509;42.816;74.648;2022-12-10T12:45:34;327.52;;;121.65;;
76617;SDS011;65509;42.816;74.648;2022-12-10T12:48:25;288.95;;;116.80;;
76617;SDS011;65509;42.816;74.648;2022-12-10T12:53:19;284.58;;;99.88;;
76617;SDS011;65509;42.816;74.648;2022-12-10T13:01:18;314.60;;;109.72;;
76617;SDS011;65509;42.816;74.648;2022-12-10T13:03:45;290.13;;;103.30;;
76617;SDS011;65509;42.816;74.648;2022-12-10T13:06:15;289.73;;;103.85;;
76617;SDS011;65509;42.816;74.648;2022-12-10T13:08:45;309.25;;;112.35;;
76617;SDS011;65509;42.816;74.648;2022-12-10T13:13:37;290.70;;;102.50;;
76617;SDS011;65509;42.816;74.648;2022-12-10T13:27:05;228.13;;;77.95;;
76617;SDS011;65509;42.816;74.648;2022-12-10T13:29:43;272.45;;;93.72;;
76617;SDS011;65509;42.816;74.648;2022-12-10T13:32:16;246.90;;;90.40;;
76617;SDS011;65509;42.816;74.648;2022-12-10T13:34:43;243.00;;;85.38;;
76617;SDS011;65509;42.816;74.648;2022-12-10T13:37:27;206.70;;;71.55;;
76617;SDS011;65509;42.816;74.648;2022-12-10T13:40:03;259.30;;;94.65;;
76617;SDS011;65509;42.816;74.648;2022-12-10T13:42:42;294.35;;;105.75;;
76617;SDS011;65509;42.816;74.648;2022-12-10T13:45:29;279.02;;;95.20;;
76617;SDS011;65509;42.816;74.648;2022-12-10T13:48:17;324.95;;;117.60;;
76617;SDS011;65509;42.816;74.648;2022-12-10T13:50:55;369.92;;;133.30;;
76617;SDS011;65509;42.816;74.648;2022-12-10T13:53:29;331.45;;;119.45;;
76617;SDS011;65509;42.816;74.648;2022-12-10T14:01:32;287.48;;;99.60;;
76617;SDS011;65509;42.816;74.648;2022-12-10T14:06:25;282.02;;;100.85;;
76617;SDS011;65509;42.816;74.648;2022-12-10T14:11:21;304.50;;;102.93;;
76617;SDS011;65509;42.816;74.648;2022-12-10T14:13:57;314.90;;;107.50;;
76617;SDS011;65509;42.816;74.648;2022-12-10T14:16:23;365.13;;;119.05;;
76617;SDS011;65509;42.816;74.648;2022-12-10T14:18:53;427.73;;;132.75;;
76617;SDS011;65509;42.816;74.648;2022-12-10T14:21:20;449.85;;;131.50;;
76617;SDS011;65509;42.816;74.648;2022-12-10T14:23:47;460.58;;;145.70;;
76617;SDS011;65509;42.816;74.648;2022-12-10T14:28:43;353.77;;;104.45;;
76617;SDS011;65509;42.816;74.648;2022-12-10T14:31:18;322.23;;;97.28;;
76617;SDS011;65509;42.816;74.648;2022-12-10T14:33:46;355.67;;;104.53;;
76617;SDS011;65509;42.816;74.648;2022-12-10T14:36:14;349.88;;;116.03;;
76617;SDS011;65509;42.816;74.648;2022-12-10T14:38:41;280.15;;;90.50;;
76617;SDS011;65509;42.816;74.648;2022-12-10T14:41:06;349.67;;;111.45;;
76617;SDS011;65509;42.816;74.648;2022-12-10T14:43:35;353.50;;;115.97;;
76617;SDS011;65509;42.816;74.648;2022-12-10T14:46:02;284.45;;;98.57;;
76617;SDS011;65509;42.816;74.648;2022-12-10T14:48:28;286.67;;;99.15;;
76617;SDS011;65509;42.816;74.648;2022-12-10T14:50:53;317.40;;;107.10;;
76617;SDS011;65509;42.816;74.648;2022-12-10T14:53:25;380.65;;;131.95;;
76617;SDS011;65509;42.816;74.648;2022-12-10T14:55:53;306.13;;;106.82;;
76617;SDS011;65509;42.816;74.648;2022-12-10T14:58:23;311.88;;;109.93;;
76617;SDS011;65509;42.816;74.648;2022-12-10T15:00:52;328.98;;;116.45;;
76617;SDS011;65509;42.816;74.648;2022-12-10T15:03:29;316.45;;;112.38;;
76617;SDS011;65509;42.816;74.648;2022-12-10T15:05:56;330.13;;;116.40;;
76617;SDS011;65509;42.816;74.648;2022-12-10T15:08:23;440.65;;;149.95;;
76617;SDS011;65509;42.816;74.648;2022-12-10T15:10:50;366.20;;;130.80;;
76617;SDS011;65509;42.816;74.648;2022-12-10T15:13:19;302.67;;;107.25;;
76617;SDS011;65509;42.816;74.648;2022-12-10T15:15:50;279.80;;;101.18;;
76617;SDS011;65509;42.816;74.648;2022-12-10T15:18:18;327.27;;;110.18;;
76617;SDS011;65509;42.816;74.648;2022-12-10T15:23:20;409.85;;;144.45;;
76617;SDS011;65509;42.816;74.648;2022-12-10T15:25:47;393.42;;;128.70;;
76617;SDS011;65509;42.816;74.648;2022-12-10T15:28:23;389.77;;;130.85;;
76617;SDS011;65509;42.816;74.648;2022-12-10T15:30:49;332.17;;;112.57;;
76617;SDS011;65509;42.816;74.648;2022-12-10T15:38:44;403.50;;;140.05;;
76617;SDS011;65509;42.816;74.648;2022-12-10T15:43:58;364.13;;;125.50;;
76617;SDS011;65509;42.816;74.648;2022-12-10T15:46:25;329.83;;;111.47;;
76617;SDS011;65509;42.816;74.648;2022-12-10T15:48:53;297.55;;;100.65;;
76617;SDS011;65509;42.816;74.648;2022-12-10T15:51:19;246.05;;;86.60;;
76617;SDS011;65509;42.816;74.648;2022-12-10T15:53:45;207.15;;;75.65;;
76617;SDS011;65509;42.816;74.648;2022-12-10T15:56:10;207.25;;;71.97;;
76617;SDS011;65509;42.816;74.648;2022-12-10T15:58:36;216.75;;;73.70;;
76617;SDS011;65509;42.816;74.648;2022-12-10T16:01:01;214.48;;;79.18;;
76617;SDS011;65509;42.816;74.648;2022-12-10T16:03:27;173.73;;;60.25;;